Time;durP1;ratioP1;P1;durP2;ratioP2;P2;SDS_P1;SDS_P2;PMS_P1;PMS_P2;Temp;Humidity;BMP_temperature;BMP_pressure;BME280_temperature;BME280_humidity;BME280_pressure;Samples;Min_cycle;Max_cycle;Signal;HPM_P1;HPM_P2
2021/01/13 00:00:21;;;;;;;6.20;3.67;;;;;;;;;;5034020;28;20652;-85
2021/01/13 00:02:51;;;;;;;8.03;4.70;;;;;;;;;;5016411;28;20172;-85
2021/01/13 00:05:21;;;;;;;12.57;4.53;;;;;;;;;;5016334;28;20195;-86
2021/01/13 00:07:55;;;;;;;8.37;4.97;;;;;;;;;;5016077;28;20230;-85
2021/01/13 00:10:23;;;;;;;7.80;4.60;;;;;;;;;;5016025;28;20177;-87
2021/01/13 00:12:53;;;;;;;13.30;5.10;;;;;;;;;;5016211;28;20657;-85
2021/01/13 00:15:25;;;;;;;9.53;4.80;;;;;;;;;;5033472;28;20226;-85
2021/01/13 00:17:56;;;;;;;6.83;4.23;;;;;;;;;;5033808;28;20206;-85
2021/01/13 00:20:29;;;;;;;7.77;4.43;;;;;;;;;;5015905;28;20174;-86
2021/01/13 00:22:59;;;;;;;11.77;4.80;;;;;;;;;;5016117;28;20718;-86
2021/01/13 00:25:27;;;;;;;9.90;5.23;;;;;;;;;;5033810;28;20731;-86
2021/01/13 00:27:54;;;;;;;10.87;4.87;;;;;;;;;;5016204;28;20202;-85
2021/01/13 00:30:21;;;;;;;13.63;5.50;;;;;;;;;;5016181;28;20699;-86
2021/01/13 00:32:54;;;;;;;11.73;5.00;;;;;;;;;;5015923;28;20256;-86
2021/01/13 00:35:22;;;;;;;11.43;5.53;;;;;;;;;;5033658;28;20199;-85
2021/01/13 00:37:51;;;;;;;9.83;5.20;;;;;;;;;;5016023;28;20201;-86
2021/01/13 00:40:19;;;;;;;10.80;4.43;;;;;;;;;;5033472;28;20203;-86
2021/01/13 00:42:50;;;;;;;8.03;4.50;;;;;;;;;;5034491;28;20178;-85
2021/01/13 00:45:19;;;;;;;12.13;4.27;;;;;;;;;;5033660;28;20207;-86
2021/01/13 00:47:54;;;;;;;9.03;4.33;;;;;;;;;;5015795;28;20192;-85
2021/01/13 00:50:25;;;;;;;11.63;4.10;;;;;;;;;;5033664;28;20191;-85
2021/01/13 00:52:52;;;;;;;3.90;3.60;;;;;;;;;;5033361;28;20177;-85
2021/01/13 00:55:21;;;;;;;11.67;4.47;;;;;;;;;;5015543;28;20197;-85
2021/01/13 00:57:51;;;;;;;4.50;4.17;;;;;;;;;;5033576;28;20735;-85
2021/01/13 01:00:25;;;;;;;5.60;4.37;;;;;;;;;;5015906;28;20714;-85
2021/01/13 01:02:55;;;;;;;6.03;4.37;;;;;;;;;;5015815;28;20172;-85
2021/01/13 01:05:21;;;;;;;10.17;4.37;;;;;;;;;;5033612;28;20196;-85
2021/01/13 01:07:51;;;;;;;6.97;3.50;;;;;;;;;;5015780;28;20264;-85
2021/01/13 01:10:21;;;;;;;10.70;3.67;;;;;;;;;;5033500;28;20209;-85
2021/01/13 01:12:48;;;;;;;6.13;2.93;;;;;;;;;;5015584;28;20186;-85
2021/01/13 01:15:19;;;;;;;7.67;3.60;;;;;;;;;;5033045;28;20201;-85
2021/01/13 01:17:51;;;;;;;9.90;3.73;;;;;;;;;;5032912;28;20266;-85
2021/01/13 01:20:21;;;;;;;7.20;2.87;;;;;;;;;;5015174;28;20264;-85
2021/01/13 01:23:01;;;;;;;9.57;3.83;;;;;;;;;;5015138;28;20273;-85
2021/01/13 01:25:28;;;;;;;5.20;2.63;;;;;;;;;;5032721;28;20638;-85
2021/01/13 01:28:05;;;;;;;7.83;3.93;;;;;;;;;;5017481;28;20366;-85
2021/01/13 01:30:36;;;;;;;6.47;3.23;;;;;;;;;;5037131;28;20246;-85
2021/01/13 01:33:04;;;;;;;8.77;3.47;;;;;;;;;;5036653;28;20185;-85
2021/01/13 01:35:38;;;;;;;11.63;3.37;;;;;;;;;;5018965;28;20325;-85
2021/01/13 01:38:11;;;;;;;8.47;3.40;;;;;;;;;;5036818;28;20196;-86
2021/01/13 01:40:45;;;;;;;12.30;3.63;;;;;;;;;;5036939;28;20200;-85
2021/01/13 01:43:21;;;;;;;13.50;4.20;;;;;;;;;;5019247;28;20177;-85
2021/01/13 01:45:51;;;;;;;3.30;3.10;;;;;;;;;;5036564;28;20196;-85
2021/01/13 01:48:29;;;;;;;9.73;3.77;;;;;;;;;;5018694;28;20210;-85
2021/01/13 01:51:02;;;;;;;17.97;4.70;;;;;;;;;;5036473;28;20184;-85
2021/01/13 01:53:45;;;;;;;6.77;4.00;;;;;;;;;;5018669;28;20188;-85
2021/01/13 01:56:26;;;;;;;6.20;4.40;;;;;;;;;;5018530;28;20206;-85
2021/01/13 01:59:10;;;;;;;6.90;3.70;;;;;;;;;;5018379;28;20233;-85
2021/01/13 02:01:37;;;;;;;14.27;4.47;;;;;;;;;;5036865;28;20172;-86
2021/01/13 02:04:08;;;;;;;7.57;4.80;;;;;;;;;;5026456;28;20244;-84
2021/01/13 02:06:46;;;;;;;7.97;5.43;;;;;;;;;;5044676;28;20196;-84
2021/01/13 02:09:18;;;;;;;13.37;4.67;;;;;;;;;;5036395;28;20184;-85
2021/01/13 02:11:54;;;;;;;7.53;4.63;;;;;;;;;;5018467;28;20203;-85
2021/01/13 02:14:22;;;;;;;10.57;4.63;;;;;;;;;;5036326;28;20169;-85
2021/01/13 02:17:00;;;;;;;10.20;5.20;;;;;;;;;;5018196;28;20598;-85
2021/01/13 02:19:47;;;;;;;15.57;5.23;;;;;;;;;;5036202;28;20218;-85
2021/01/13 02:22:40;;;;;;;11.27;4.80;;;;;;;;;;5018250;28;20173;-84
2021/01/13 02:25:15;;;;;;;8.60;5.00;;;;;;;;;;5035864;28;20232;-84
2021/01/13 02:28:01;;;;;;;13.83;5.50;;;;;;;;;;5018368;28;20201;-83
2021/01/13 02:30:42;;;;;;;12.37;4.87;;;;;;;;;;5036174;28;20175;-83
2021/01/13 02:33:28;;;;;;;9.47;3.87;;;;;;;;;;5018239;28;20185;-83
2021/01/13 02:36:10;;;;;;;12.00;4.80;;;;;;;;;;5035778;28;20193;-84
2021/01/13 02:38:41;;;;;;;23.53;5.53;;;;;;;;;;5017607;28;20201;-84
2021/01/13 02:41:18;;;;;;;11.60;4.97;;;;;;;;;;5036014;28;20186;-84
2021/01/13 02:43:57;;;;;;;23.13;5.60;;;;;;;;;;5017918;28;20180;-84
2021/01/13 02:46:43;;;;;;;7.10;4.70;;;;;;;;;;5035309;28;20193;-84
2021/01/13 02:49:14;;;;;;;8.83;4.83;;;;;;;;;;5035754;28;20571;-84
2021/01/13 02:51:51;;;;;;;11.83;5.53;;;;;;;;;;5035356;28;20176;-84
2021/01/13 02:54:36;;;;;;;9.37;5.50;;;;;;;;;;5017487;28;20209;-84
2021/01/13 02:57:20;;;;;;;8.57;4.90;;;;;;;;;;5035539;28;20179;-84
2021/01/13 02:59:48;;;;;;;9.10;5.20;;;;;;;;;;5017477;28;20181;-84
2021/01/13 03:02:19;;;;;;;13.73;6.20;;;;;;;;;;5035504;28;20173;-84
2021/01/13 03:04:51;;;;;;;11.00;6.13;;;;;;;;;;5035309;28;20188;-84
2021/01/13 03:07:28;;;;;;;16.40;6.33;;;;;;;;;;5017918;28;20249;-84
2021/01/13 03:10:01;;;;;;;9.70;5.33;;;;;;;;;;5017248;28;20261;-84
2021/01/13 03:12:32;;;;;;;15.93;6.27;;;;;;;;;;5017218;28;20183;-84
2021/01/13 03:15:02;;;;;;;11.37;6.67;;;;;;;;;;5017182;28;20275;-84
2021/01/13 03:17:40;;;;;;;6.70;5.23;;;;;;;;;;5035029;28;20230;-85
2021/01/13 03:20:12;;;;;;;12.47;5.77;;;;;;;;;;5017131;28;20635;-85
2021/01/13 03:22:51;;;;;;;8.63;5.67;;;;;;;;;;5034662;28;20169;-85
2021/01/13 03:25:21;;;;;;;8.10;5.50;;;;;;;;;;5016912;28;20208;-85
2021/01/13 03:27:48;;;;;;;9.17;4.90;;;;;;;;;;5016883;28;20188;-85
2021/01/13 03:30:17;;;;;;;9.87;6.17;;;;;;;;;;5016790;28;20176;-85
2021/01/13 03:32:50;;;;;;;15.93;5.20;;;;;;;;;;5016748;28;20203;-85
2021/01/13 03:35:21;;;;;;;11.27;5.43;;;;;;;;;;5034391;28;20277;-85
2021/01/13 03:37:51;;;;;;;11.07;5.70;;;;;;;;;;5034395;28;20615;-85
2021/01/13 03:40:21;;;;;;;13.73;5.47;;;;;;;;;;5016523;28;20183;-85
2021/01/13 03:42:51;;;;;;;18.37;6.60;;;;;;;;;;5034340;28;20252;-85
2021/01/13 03:45:25;;;;;;;14.17;5.10;;;;;;;;;;5016358;28;20275;-85
2021/01/13 03:48:01;;;;;;;16.90;5.77;;;;;;;;;;5016495;28;20185;-85
2021/01/13 03:50:43;;;;;;;8.40;4.80;;;;;;;;;;5016006;28;20166;-86
2021/01/13 03:53:15;;;;;;;11.10;5.83;;;;;;;;;;5034087;28;20163;-86
2021/01/13 03:55:48;;;;;;;13.23;6.80;;;;;;;;;;5016535;28;20200;-86
2021/01/13 03:58:19;;;;;;;6.97;5.10;;;;;;;;;;5016436;28;20284;-86
2021/01/13 04:00:59;;;;;;;12.30;5.43;;;;;;;;;;5016315;28;20658;-86
2021/01/13 04:03:31;;;;;;;8.73;5.13;;;;;;;;;;5016251;28;20226;-86
2021/01/13 04:06:07;;;;;;;12.73;5.33;;;;;;;;;;5033885;28;20184;-86
2021/01/13 04:08:41;;;;;;;13.90;5.33;;;;;;;;;;5034055;28;20714;-86
2021/01/13 04:11:20;;;;;;;9.53;5.00;;;;;;;;;;5016210;28;20180;-86
2021/01/13 04:13:51;;;;;;;13.00;4.83;;;;;;;;;;5016076;28;20176;-86
2021/01/13 04:16:26;;;;;;;10.60;4.90;;;;;;;;;;5033678;28;20278;-86
2021/01/13 04:18:57;;;;;;;7.53;5.17;;;;;;;;;;5015842;28;20707;-86
2021/01/13 04:21:28;;;;;;;8.67;5.23;;;;;;;;;;5016040;28;20177;-86
2021/01/13 04:24:04;;;;;;;9.67;4.73;;;;;;;;;;5015833;28;20617;-86
2021/01/13 04:26:35;;;;;;;7.10;5.00;;;;;;;;;;5033558;28;20204;-86
2021/01/13 04:29:07;;;;;;;9.10;4.80;;;;;;;;;;5033498;28;20712;-86
2021/01/13 04:31:39;;;;;;;6.07;4.20;;;;;;;;;;5015911;28;20204;-86
2021/01/13 04:34:08;;;;;;;8.33;4.63;;;;;;;;;;5033987;28;20511;-86
2021/01/13 04:36:43;;;;;;;4.63;4.20;;;;;;;;;;5033439;28;20197;-86
2021/01/13 04:39:14;;;;;;;6.33;4.13;;;;;;;;;;5033355;28;20672;-86
2021/01/13 04:42:01;;;;;;;4.97;4.10;;;;;;;;;;5033516;28;20604;-86
2021/01/13 04:44:39;;;;;;;4.10;3.70;;;;;;;;;;5015635;28;20164;-86
2021/01/13 04:47:11;;;;;;;6.67;4.20;;;;;;;;;;5033626;28;20165;-86
2021/01/13 04:49:44;;;;;;;8.63;4.33;;;;;;;;;;5015636;28;20553;-86
2021/01/13 04:52:20;;;;;;;4.67;3.83;;;;;;;;;;5033302;28;20166;-86
2021/01/13 04:54:48;;;;;;;7.83;4.30;;;;;;;;;;5033133;28;20197;-86
2021/01/13 04:57:20;;;;;;;6.13;4.10;;;;;;;;;;5015514;28;20179;-86
2021/01/13 05:00:01;;;;;;;9.27;4.07;;;;;;;;;;5015498;28;20172;-86
2021/01/13 05:02:43;;;;;;;11.57;4.30;;;;;;;;;;5017104;28;20694;-86
2021/01/13 05:05:24;;;;;;;5.83;3.70;;;;;;;;;;5019699;28;20201;-86
2021/01/13 05:08:00;;;;;;;3.63;3.30;;;;;;;;;;5019461;28;20173;-86
2021/01/13 05:10:33;;;;;;;5.90;3.53;;;;;;;;;;5019619;28;20184;-86
2021/01/13 05:13:04;;;;;;;12.50;3.70;;;;;;;;;;5019642;28;20213;-86
2021/01/13 05:15:40;;;;;;;3.63;3.30;;;;;;;;;;5019430;28;20201;-86
2021/01/13 05:18:16;;;;;;;7.07;3.87;;;;;;;;;;5019341;28;20207;-86
2021/01/13 05:20:55;;;;;;;4.03;3.63;;;;;;;;;;5037212;28;20172;-86
2021/01/13 05:23:26;;;;;;;7.83;3.60;;;;;;;;;;5019294;28;20177;-86
2021/01/13 05:25:55;;;;;;;8.67;4.30;;;;;;;;;;5018934;28;20213;-86
2021/01/13 05:28:26;;;;;;;7.33;3.97;;;;;;;;;;5019175;28;20208;-86
2021/01/13 05:30:59;;;;;;;10.93;4.73;;;;;;;;;;5020014;28;20185;-86
2021/01/13 05:33:29;;;;;;;13.80;4.30;;;;;;;;;;5018959;28;20276;-86
2021/01/13 05:36:05;;;;;;;9.27;4.60;;;;;;;;;;5018901;28;20211;-86
2021/01/13 05:38:55;;;;;;;7.83;4.23;;;;;;;;;;5018970;28;20748;-86
2021/01/13 05:41:25;;;;;;;11.43;4.73;;;;;;;;;;5037087;28;20173;-86
2021/01/13 05:43:55;;;;;;;6.40;4.43;;;;;;;;;;5018776;28;20183;-86
2021/01/13 05:46:23;;;;;;;9.13;4.80;;;;;;;;;;5018952;28;20203;-86
2021/01/13 05:48:55;;;;;;;8.27;4.73;;;;;;;;;;5036536;28;20533;-86
2021/01/13 05:51:33;;;;;;;7.07;4.73;;;;;;;;;;5018736;28;20188;-86
2021/01/13 05:54:07;;;;;;;11.73;5.17;;;;;;;;;;5019314;28;20205;-86
2021/01/13 05:56:43;;;;;;;9.13;4.87;;;;;;;;;;5036562;28;20206;-86
2021/01/13 05:59:20;;;;;;;12.23;4.73;;;;;;;;;;5018560;28;20208;-86
2021/01/13 06:02:06;;;;;;;7.10;4.43;;;;;;;;;;5036607;28;20173;-87
2021/01/13 06:04:35;;;;;;;12.30;5.07;;;;;;;;;;5018464;28;20173;-87
2021/01/13 06:07:11;;;;;;;5.90;4.40;;;;;;;;;;5018479;28;20174;-86
2021/01/13 06:09:43;;;;;;;9.93;4.70;;;;;;;;;;5018538;28;20533;-86
2021/01/13 06:12:22;;;;;;;9.23;4.70;;;;;;;;;;5036573;28;20222;-86
2021/01/13 06:14:56;;;;;;;11.10;4.40;;;;;;;;;;5036274;28;20567;-87
2021/01/13 06:17:29;;;;;;;18.53;4.90;;;;;;;;;;5018312;28;20637;-86
2021/01/13 06:20:05;;;;;;;9.80;4.33;;;;;;;;;;5018324;28;20181;-86
2021/01/13 06:22:35;;;;;;;8.43;4.83;;;;;;;;;;5036139;28;20165;-86
2021/01/13 06:25:07;;;;;;;13.07;4.87;;;;;;;;;;5017925;28;20219;-86
2021/01/13 06:27:41;;;;;;;11.23;5.13;;;;;;;;;;5036383;28;20590;-86
2021/01/13 06:30:15;;;;;;;5.57;4.83;;;;;;;;;;5018527;28;20185;-86
2021/01/13 06:32:56;;;;;;;6.90;5.27;;;;;;;;;;5018090;28;20181;-86
2021/01/13 06:35:46;;;;;;;12.73;4.80;;;;;;;;;;5018592;28;20689;-87
2021/01/13 06:38:25;;;;;;;11.57;4.93;;;;;;;;;;5017986;28;20692;-86
2021/01/13 06:41:06;;;;;;;7.90;3.60;;;;;;;;;;5017883;28;20260;-87
2021/01/13 06:43:38;;;;;;;6.33;4.77;;;;;;;;;;5018410;28;20204;-86
2021/01/13 06:46:29;;;;;;;7.17;4.50;;;;;;;;;;5035746;28;20194;-86
2021/01/13 06:49:15;;;;;;;4.63;4.03;;;;;;;;;;5017843;28;20185;-86
2021/01/13 06:51:46;;;;;;;12.77;5.33;;;;;;;;;;5017839;28;20181;-86
2021/01/13 06:54:13;;;;;;;13.13;5.03;;;;;;;;;;5038729;28;20181;-86
2021/01/13 06:57:01;;;;;;;16.03;5.30;;;;;;;;;;5036381;28;20227;-86
2021/01/13 06:59:40;;;;;;;10.37;5.13;;;;;;;;;;5035329;28;20755;-86
2021/01/13 07:02:10;;;;;;;10.70;5.10;;;;;;;;;;5017932;28;20259;-86
2021/01/13 07:04:49;;;;;;;8.70;4.80;;;;;;;;;;5017613;28;20172;-86
2021/01/13 07:07:20;;;;;;;10.20;4.90;;;;;;;;;;5035194;28;20560;-86
2021/01/13 07:09:51;;;;;;;8.27;4.17;;;;;;;;;;5017371;28;20178;-86
2021/01/13 07:12:23;;;;;;;11.27;3.93;;;;;;;;;;5035409;28;20176;-86
2021/01/13 07:14:57;;;;;;;10.77;4.77;;;;;;;;;;5017038;28;20207;-86
2021/01/13 07:17:25;;;;;;;10.17;5.00;;;;;;;;;;5035225;28;20159;-86
2021/01/13 07:20:01;;;;;;;5.87;3.57;;;;;;;;;;5017194;28;20231;-86
2021/01/13 07:22:35;;;;;;;7.77;4.03;;;;;;;;;;5035082;28;20172;-85
2021/01/13 07:25:03;;;;;;;7.70;4.93;;;;;;;;;;5033994;28;20205;-85
2021/01/13 07:27:31;;;;;;;23.17;4.97;;;;;;;;;;5035049;28;20203;-86
2021/01/13 07:30:02;;;;;;;11.03;4.83;;;;;;;;;;5016901;28;20269;-86
2021/01/13 07:32:39;;;;;;;14.93;5.63;;;;;;;;;;5016979;28;20179;-86
2021/01/13 07:35:11;;;;;;;9.63;4.53;;;;;;;;;;5034834;28;20682;-85
2021/01/13 07:38:06;;;;;;;19.77;5.83;;;;;;;;;;5034709;28;20202;-86
2021/01/13 07:40:37;;;;;;;12.93;4.97;;;;;;;;;;5016854;28;20259;-86
2021/01/13 07:43:15;;;;;;;10.37;4.50;;;;;;;;;;5034662;28;20204;-86
2021/01/13 07:45:48;;;;;;;18.87;5.40;;;;;;;;;;5016698;28;20197;-86
2021/01/13 07:48:21;;;;;;;3.80;3.43;;;;;;;;;;5034759;28;20172;-86
2021/01/13 07:50:50;;;;;;;11.20;3.53;;;;;;;;;;5016600;28;20266;-86
2021/01/13 07:53:26;;;;;;;11.60;4.27;;;;;;;;;;5017049;28;20640;-86
2021/01/13 07:55:57;;;;;;;7.57;3.27;;;;;;;;;;5017236;28;20226;-85
2021/01/13 07:58:29;;;;;;;11.17;3.53;;;;;;;;;;5034133;28;20251;-86
2021/01/13 08:01:04;;;;;;;8.83;3.90;;;;;;;;;;5016769;28;20172;-86
2021/01/13 08:04:01;;;;;;;7.03;3.83;;;;;;;;;;5016390;28;20180;-86
2021/01/13 08:06:32;;;;;;;5.33;3.73;;;;;;;;;;5016296;28;20197;-85
2021/01/13 08:09:20;;;;;;;4.53;4.00;;;;;;;;;;5016215;28;20179;-85
2021/01/13 08:12:12;;;;;;;8.20;3.83;;;;;;;;;;5034393;28;20206;-85
2021/01/13 08:15:00;;;;;;;8.40;4.17;;;;;;;;;;5016398;28;20559;-85
2021/01/13 08:17:47;;;;;;;14.17;5.20;;;;;;;;;;5016224;28;20594;-85
2021/01/13 08:20:26;;;;;;;4.00;3.67;;;;;;;;;;5016226;28;20178;-85
2021/01/13 08:23:16;;;;;;;13.23;4.50;;;;;;;;;;5016589;28;20571;-85
2021/01/13 08:25:52;;;;;;;10.10;4.60;;;;;;;;;;5016466;28;20224;-85
2021/01/13 08:28:20;;;;;;;12.03;4.87;;;;;;;;;;5016267;28;20202;-85
2021/01/13 08:30:55;;;;;;;13.90;5.10;;;;;;;;;;5033833;28;20239;-85
2021/01/13 08:33:27;;;;;;;8.43;4.40;;;;;;;;;;5033676;28;20655;-85
2021/01/13 08:36:00;;;;;;;12.07;4.80;;;;;;;;;;5033578;28;20682;-86
2021/01/13 08:38:35;;;;;;;12.70;5.40;;;;;;;;;;5016270;28;20199;-86
2021/01/13 08:41:21;;;;;;;13.60;4.63;;;;;;;;;;5016133;28;20189;-86
2021/01/13 08:44:10;;;;;;;12.30;4.90;;;;;;;;;;5015849;28;20259;-86
2021/01/13 08:46:43;;;;;;;12.97;4.30;;;;;;;;;;5033586;28;20200;-86
2021/01/13 08:49:15;;;;;;;6.90;4.50;;;;;;;;;;5015947;28;20176;-86
2021/01/13 08:52:04;;;;;;;12.33;5.70;;;;;;;;;;5015917;28;20181;-85
2021/01/13 08:54:39;;;;;;;8.63;4.43;;;;;;;;;;5015379;28;20177;-86
2021/01/13 08:57:12;;;;;;;7.37;4.73;;;;;;;;;;5016524;28;20185;-86
2021/01/13 08:59:48;;;;;;;6.93;5.33;;;;;;;;;;5033475;28;20246;-86
2021/01/13 09:02:26;;;;;;;10.47;4.93;;;;;;;;;;5033737;28;20161;-86
2021/01/13 09:05:06;;;;;;;6.03;4.97;;;;;;;;;;5015636;28;20198;-86
2021/01/13 09:07:45;;;;;;;7.27;4.93;;;;;;;;;;5016144;28;20168;-86
2021/01/13 09:10:19;;;;;;;18.60;5.93;;;;;;;;;;5015762;28;20581;-86
2021/01/13 09:12:50;;;;;;;8.43;5.80;;;;;;;;;;5033435;28;20219;-85
2021/01/13 09:15:20;;;;;;;8.47;4.87;;;;;;;;;;5033522;28;20197;-86
2021/01/13 09:17:51;;;;;;;17.80;5.87;;;;;;;;;;5033353;28;20181;-85
2021/01/13 09:20:20;;;;;;;10.73;4.57;;;;;;;;;;5015609;28;20189;-87
2021/01/13 09:22:58;;;;;;;6.53;3.90;;;;;;;;;;5033135;28;20183;-87
2021/01/13 09:25:33;;;;;;;15.10;5.83;;;;;;;;;;5033962;28;20223;-85
2021/01/13 09:28:03;;;;;;;13.13;5.53;;;;;;;;;;5045915;23;20260;-90
2021/01/13 09:30:40;;;;;;;13.07;4.73;;;;;;;;;;5035069;28;20553;-90
2021/01/13 09:33:15;;;;;;;11.30;4.90;;;;;;;;;;5035128;28;20166;-90
2021/01/13 09:35:43;;;;;;;11.03;4.57;;;;;;;;;;5052709;28;20548;-89
2021/01/13 09:38:12;;;;;;;5.77;4.17;;;;;;;;;;5035305;28;20331;-89
2021/01/13 09:40:53;;;;;;;8.07;4.33;;;;;;;;;;5052686;28;20173;-89
2021/01/13 09:43:25;;;;;;;11.20;5.60;;;;;;;;;;5035147;28;20181;-89
2021/01/13 09:45:53;;;;;;;9.60;4.90;;;;;;;;;;5035270;28;20170;-90
2021/01/13 09:48:20;;;;;;;13.30;5.40;;;;;;;;;;5036244;28;20694;-89
2021/01/13 09:51:00;;;;;;;9.23;4.83;;;;;;;;;;5038999;28;20183;-89
2021/01/13 09:53:40;;;;;;;14.30;5.50;;;;;;;;;;5056788;28;20260;-89
2021/01/13 09:56:11;;;;;;;5.53;4.33;;;;;;;;;;5039192;28;20257;-89
2021/01/13 09:58:45;;;;;;;10.37;4.53;;;;;;;;;;5038222;28;20198;-89
2021/01/13 10:01:11;;;;;;;11.53;4.67;;;;;;;;;;5038675;28;20206;-89
2021/01/13 10:03:42;;;;;;;8.90;4.33;;;;;;;;;;5038693;28;20174;-89
2021/01/13 10:06:17;;;;;;;18.93;5.37;;;;;;;;;;5038570;28;20181;-89
2021/01/13 10:08:50;;;;;;;8.30;4.40;;;;;;;;;;5038381;28;20205;-89
2021/01/13 10:11:21;;;;;;;10.73;4.67;;;;;;;;;;5038124;28;20258;-89
2021/01/13 10:13:59;;;;;;;12.20;5.70;;;;;;;;;;5038138;28;20643;-90
2021/01/13 10:16:30;;;;;;;15.77;6.93;;;;;;;;;;5039025;28;20180;-89
2021/01/13 10:19:04;;;;;;;17.90;5.43;;;;;;;;;;5056027;28;20202;-89
2021/01/13 10:21:37;;;;;;;12.73;5.10;;;;;;;;;;5038069;28;20187;-89
2021/01/13 10:24:08;;;;;;;10.40;4.53;;;;;;;;;;5038023;28;20179;-89
2021/01/13 10:26:41;;;;;;;6.23;4.93;;;;;;;;;;5037998;28;20174;-89
2021/01/13 10:29:12;;;;;;;10.37;5.37;;;;;;;;;;5037625;28;20212;-89
2021/01/13 10:31:44;;;;;;;15.00;5.23;;;;;;;;;;5038318;28;20182;-89
2021/01/13 10:34:13;;;;;;;9.37;6.33;;;;;;;;;;5037778;28;20203;-89
2021/01/13 10:36:49;;;;;;;9.90;4.83;;;;;;;;;;5038431;28;20168;-89
2021/01/13 10:39:21;;;;;;;10.17;4.83;;;;;;;;;;5037684;28;20206;-89
2021/01/13 10:41:51;;;;;;;21.67;5.60;;;;;;;;;;5037901;28;20260;-89
2021/01/13 10:44:19;;;;;;;11.43;4.60;;;;;;;;;;5037691;28;20183;-89
2021/01/13 10:46:49;;;;;;;11.03;4.60;;;;;;;;;;5038014;28;20545;-89
2021/01/13 10:49:23;;;;;;;11.70;4.60;;;;;;;;;;5055312;28;20578;-89
2021/01/13 10:51:52;;;;;;;10.60;5.70;;;;;;;;;;5037761;28;20171;-89
2021/01/13 10:54:21;;;;;;;16.60;4.93;;;;;;;;;;5037349;28;20172;-89
2021/01/13 10:56:54;;;;;;;9.80;4.40;;;;;;;;;;5055572;28;20679;-89
2021/01/13 10:59:25;;;;;;;19.97;5.33;;;;;;;;;;5055130;28;20202;-88
2021/01/13 11:01:57;;;;;;;10.83;4.57;;;;;;;;;;5038082;28;20176;-89
2021/01/13 11:04:29;;;;;;;12.00;4.70;;;;;;;;;;5037412;28;20172;-89
2021/01/13 11:07:17;;;;;;;19.23;5.70;;;;;;;;;;5037285;28;20172;-89
2021/01/13 11:09:49;;;;;;;18.93;5.37;;;;;;;;;;5054920;28;20203;-89
2021/01/13 11:12:29;;;;;;;13.40;5.60;;;;;;;;;;5055281;28;20160;-89
2021/01/13 11:15:07;;;;;;;15.27;5.07;;;;;;;;;;5055151;28;20180;-89
2021/01/13 11:17:40;;;;;;;11.03;4.23;;;;;;;;;;5037176;28;20176;-89
2021/01/13 11:20:13;;;;;;;12.60;4.47;;;;;;;;;;5037171;28;20198;-89
2021/01/13 11:22:46;;;;;;;8.77;4.70;;;;;;;;;;5036881;28;20766;-89
2021/01/13 11:25:21;;;;;;;7.87;5.90;;;;;;;;;;5037095;28;20178;-91
2021/01/13 11:28:01;;;;;;;18.40;5.07;;;;;;;;;;5036892;28;20248;-90
2021/01/13 11:30:31;;;;;;;15.47;5.17;;;;;;;;;;5054662;28;20255;-91
2021/01/13 11:33:02;;;;;;;12.70;4.63;;;;;;;;;;5036681;28;20255;-90
2021/01/13 11:35:38;;;;;;;9.77;3.97;;;;;;;;;;5036943;28;20175;-89
2021/01/13 11:38:10;;;;;;;13.50;4.00;;;;;;;;;;5054642;28;20195;-89
2021/01/13 11:40:46;;;;;;;11.90;4.47;;;;;;;;;;5036668;28;20176;-90
2021/01/13 11:43:25;;;;;;;9.13;4.07;;;;;;;;;;5054506;28;20165;-89
2021/01/13 11:46:02;;;;;;;22.37;4.77;;;;;;;;;;5054598;28;20251;-91
2021/01/13 11:48:31;;;;;;;11.83;4.10;;;;;;;;;;5036626;28;20698;-90
2021/01/13 11:51:01;;;;;;;4.53;4.03;;;;;;;;;;5036412;28;20550;-90
2021/01/13 11:53:28;;;;;;;15.63;5.23;;;;;;;;;;5036582;28;20309;-90
2021/01/13 11:55:55;;;;;;;10.07;4.33;;;;;;;;;;5036308;28;20172;-90
2021/01/13 11:58:25;;;;;;;10.33;4.37;;;;;;;;;;5036869;28;20287;-91
2021/01/13 12:00:51;;;;;;;14.17;4.23;;;;;;;;;;5036042;28;20270;-90
2021/01/13 12:03:19;;;;;;;17.07;6.10;;;;;;;;;;5053931;28;20187;-90
2021/01/13 12:05:47;;;;;;;6.60;3.03;;;;;;;;;;5036113;28;20176;-88
2021/01/13 12:08:20;;;;;;;13.30;4.40;;;;;;;;;;5053700;28;20667;-88
2021/01/13 12:10:56;;;;;;;6.47;3.37;;;;;;;;;;5053394;28;20174;-88
2021/01/13 12:13:27;;;;;;;12.13;4.50;;;;;;;;;;5035919;28;20175;-88
2021/01/13 12:15:58;;;;;;;16.27;4.87;;;;;;;;;;5035940;28;20196;-88
2021/01/13 12:18:31;;;;;;;11.73;4.73;;;;;;;;;;5053580;28;20226;-88
2021/01/13 12:21:00;;;;;;;9.63;3.73;;;;;;;;;;5036134;28;20690;-88
2021/01/13 12:23:39;;;;;;;14.90;3.97;;;;;;;;;;5036021;28;20180;-88
2021/01/13 12:26:27;;;;;;;8.40;3.80;;;;;;;;;;5053611;28;20234;-88
2021/01/13 12:29:00;;;;;;;13.00;5.03;;;;;;;;;;5035435;28;20216;-88
2021/01/13 12:31:42;;;;;;;8.90;3.67;;;;;;;;;;5035674;28;20707;-87
2021/01/13 12:34:23;;;;;;;13.17;3.90;;;;;;;;;;5053369;28;20172;-87
2021/01/13 12:36:57;;;;;;;14.00;3.80;;;;;;;;;;5035830;28;20172;-87
2021/01/13 12:39:41;;;;;;;17.90;5.13;;;;;;;;;;5035396;28;20663;-87
2021/01/13 12:42:19;;;;;;;20.40;5.40;;;;;;;;;;5035870;28;20267;-88
2021/01/13 12:44:51;;;;;;;15.80;4.87;;;;;;;;;;5035492;28;20180;-87
2021/01/13 12:47:27;;;;;;;12.43;4.73;;;;;;;;;;5035508;28;20176;-88
2021/01/13 12:49:59;;;;;;;4.97;3.43;;;;;;;;;;5053477;28;20556;-89
2021/01/13 12:52:31;;;;;;;3.87;3.67;;;;;;;;;;5035340;28;20176;-89
2021/01/13 12:55:01;;;;;;;4.60;4.20;;;;;;;;;;5035346;28;20185;-89
2021/01/13 12:57:34;;;;;;;4.77;4.50;;;;;;;;;;5035250;28;20178;-89
2021/01/13 13:00:02;;;;;;;4.40;4.10;;;;;;;;;;5035904;28;20182;-89
2021/01/13 13:02:31;;;;;;;4.50;4.20;;;;;;;;;;5035253;28;20221;-90
2021/01/13 13:04:57;;;;;;;3.23;2.93;;;;;;;;;;5035957;28;20182;-90
2021/01/13 13:07:28;;;;;;;4.07;3.87;;;;;;;;;;5035309;28;20182;-90
2021/01/13 13:09:54;;;;;;;4.70;4.17;;;;;;;;;;5035408;28;20185;-91
2021/01/13 13:12:24;;;;;;;3.80;3.50;;;;;;;;;;5035243;28;20172;-90
2021/01/13 13:14:54;;;;;;;3.77;3.57;;;;;;;;;;5035408;28;20187;-91
2021/01/13 13:17:25;;;;;;;3.70;3.40;;;;;;;;;;5035690;28;20604;-90
2021/01/13 13:19:55;;;;;;;2.70;2.50;;;;;;;;;;5035326;28;20655;-90
2021/01/13 13:22:25;;;;;;;3.57;3.37;;;;;;;;;;5035359;28;20207;-90
2021/01/13 13:24:55;;;;;;;3.50;3.30;;;;;;;;;;5039407;28;20262;-90
2021/01/13 13:27:25;;;;;;;5.17;3.57;;;;;;;;;;5039268;28;20180;-89
2021/01/13 13:29:54;;;;;;;3.17;2.97;;;;;;;;;;5056858;28;20623;-89
2021/01/13 13:32:29;;;;;;;4.80;3.53;;;;;;;;;;5038905;28;20183;-89
2021/01/13 13:34:58;;;;;;;5.87;3.67;;;;;;;;;;5039016;28;20188;-89
2021/01/13 13:37:31;;;;;;;6.97;3.87;;;;;;;;;;5038757;28;20176;-89
2021/01/13 13:39:58;;;;;;;4.23;3.83;;;;;;;;;;5038828;28;20187;-89
2021/01/13 13:42:28;;;;;;;5.37;4.20;;;;;;;;;;5038882;28;20594;-89
2021/01/13 13:44:57;;;;;;;11.10;4.37;;;;;;;;;;5039870;28;20183;-89
2021/01/13 13:47:36;;;;;;;9.97;4.30;;;;;;;;;;5038609;28;20200;-89
2021/01/13 13:50:08;;;;;;;9.07;3.97;;;;;;;;;;5039052;28;20185;-89
2021/01/13 13:52:41;;;;;;;11.37;4.90;;;;;;;;;;5038685;28;20176;-89
2021/01/13 13:55:10;;;;;;;10.57;4.57;;;;;;;;;;5038530;28;20203;-89
2021/01/13 13:57:40;;;;;;;11.60;5.07;;;;;;;;;;5038504;28;20184;-89
2021/01/13 14:00:11;;;;;;;10.47;4.50;;;;;;;;;;5038684;28;20170;-89
2021/01/13 14:02:41;;;;;;;18.17;5.10;;;;;;;;;;5038466;28;20172;-89
2021/01/13 14:05:12;;;;;;;14.60;4.70;;;;;;;;;;5038451;28;20685;-89
2021/01/13 14:07:38;;;;;;;17.87;5.03;;;;;;;;;;5038323;28;20192;-88
2021/01/13 14:10:06;;;;;;;23.83;6.07;;;;;;;;;;5038207;28;20254;-88
2021/01/13 14:12:32;;;;;;;21.67;5.70;;;;;;;;;;5038202;28;20190;-89
2021/01/13 14:14:58;;;;;;;14.53;4.77;;;;;;;;;;5038126;28;20184;-88
2021/01/13 14:17:29;;;;;;;22.53;6.90;;;;;;;;;;5038136;28;20182;-89
2021/01/13 14:19:56;;;;;;;13.53;5.83;;;;;;;;;;5038335;28;20190;-89
2021/01/13 14:22:22;;;;;;;18.60;5.73;;;;;;;;;;5038466;28;20177;-89
2021/01/13 14:24:49;;;;;;;14.50;5.70;;;;;;;;;;5038053;28;20184;-89
2021/01/13 14:27:15;;;;;;;14.10;4.47;;;;;;;;;;5037974;28;20185;-88
2021/01/13 14:29:41;;;;;;;23.13;5.47;;;;;;;;;;5037767;28;20633;-88
2021/01/13 14:32:14;;;;;;;18.90;5.87;;;;;;;;;;5038301;28;20170;-88
2021/01/13 14:34:40;;;;;;;18.83;5.70;;;;;;;;;;5037423;28;20228;-88
2021/01/13 14:37:07;;;;;;;16.03;5.70;;;;;;;;;;5037990;28;20174;-89
2021/01/13 14:39:33;;;;;;;30.40;6.00;;;;;;;;;;5037642;28;20198;-89
2021/01/13 14:42:03;;;;;;;18.17;5.33;;;;;;;;;;5055493;28;20175;-88
2021/01/13 14:44:31;;;;;;;24.67;5.90;;;;;;;;;;5055582;28;20189;-89
2021/01/13 14:46:57;;;;;;;16.63;4.23;;;;;;;;;;5037676;28;20594;-89
2021/01/13 14:49:23;;;;;;;19.07;5.20;;;;;;;;;;5037697;28;20207;-89
2021/01/13 14:51:50;;;;;;;15.23;4.17;;;;;;;;;;5055388;28;20171;-88
2021/01/13 14:54:16;;;;;;;20.97;5.07;;;;;;;;;;5037459;28;20185;-89
2021/01/13 14:56:42;;;;;;;14.17;5.77;;;;;;;;;;5055242;28;20670;-89
2021/01/13 14:59:09;;;;;;;12.80;4.43;;;;;;;;;;5037387;28;20199;-89
2021/01/13 15:01:35;;;;;;;16.50;4.67;;;;;;;;;;5037393;28;20658;-89
2021/01/13 15:04:01;;;;;;;10.17;4.00;;;;;;;;;;5037333;28;20224;-89
2021/01/13 15:06:28;;;;;;;8.70;3.53;;;;;;;;;;5037219;28;20179;-88
2021/01/13 15:08:54;;;;;;;12.87;4.43;;;;;;;;;;5037165;28;20231;-88
2021/01/13 15:11:21;;;;;;;10.20;4.73;;;;;;;;;;5037097;28;20582;-88